Aurora, OR

12:56 PM PST on December 05, 2016 (GMT -0800)
Barlow Sunset Farm | | Change Station
Active Advisory: Winter Weather Advisory

Elev 153 ft 45.21 °N, 122.73 °W | Updated 6 minutes ago

Rain
Rain Snow Mist
36.0 °F
Feels Like 32 °F
N
5.0
Wind Variable Wind from South
Gusts 5.0 mph

Today
High -- | Low -- °F
--% Chance of Precip.
Yesterday
High -- | Low -- °F
Precip. -- in
Pressure 30.13 in
Visibility 2.5 miles
Clouds Mostly Cloudy 600 ft
Overcast 1100 ft
Windchill 32 °F
Dew Point 34 °F
Humidity 93%
Rainfall 0.25 in
Snow Depth Not available.
7:34 AM 4:28 PM
Waxing Crescent, 34% visible
METAR KUAO 052053Z 22005KT 2 1/2SM RASN BR BKN006 OVC011 02/01 A3012 RMK AO2 SLP201 P0008 6//// T00170011 58009
Pressure 30.13 in
Visibility 2.5 miles
Clouds Mostly Cloudy 600 ft
Overcast 1100 ft
Windchill 32 °F
Dew Point 34 °F
Humidity 93%
Rainfall 0.25 in
Snow Depth Not available.
7:34 AM 4:28 PM
Waxing Crescent, 34% visible
METAR KUAO 052053Z 22005KT 2 1/2SM RASN BR BKN006 OVC011 02/01 A3012 RMK AO2 SLP201 P0008 6//// T00170011 58009

10-Day Weather Forecast

Almanac

Astronomy

Dec. 05, 2016 Rise Set
Actual Time
Civil Twilight
Nautical Twilight
Astronomical Twilight
Moon
Length of Visible Light
Length of Day
Tomorrow will be .
, % of the Moon is Illuminated

Today's Extremes

State Highs State Lows

Community

WunderPhotos

Upload Photos

1,955,861 photos uploaded!

WunderBlog® & News

Nearby

Air Quality

  Air Quality AQ Index Pollutant
Not available.

Snow Depth

Station Depth Elevation

Earthquake Activity

City Distance Mag. Time & Date
Minimum magnitude displayed is 2.5.

Coastal Water Temperatures

Place Temperature

Stations

Nearby Weather Stations

Station Location Temp. Windchill Dew Point Humidity Wind Precip. Elev Updated Type
                   

Watches & Warnings

Winter Weather Advisory
Issued: 12:48 PM PST Dec. 5, 2016 – National Weather Service

... Winter Weather Advisory now in effect until 3 PM PST this
afternoon for the central Willamette Valley...

The Winter Weather Advisory for snow is now in effect until 3 PM
PST this afternoon.

* Timing... snow showers will continue until early afternoon.

* Accumulation... up to 1 or 2 inches above 1000 feet. Any
accumulations below 1000 feet less than 1 inch.

Precautionary/preparedness actions...

A Winter Weather Advisory for snow means that periods of snow
will cause primarily travel difficulties. Be prepared for snow
covered roads and limited visibilities... and use caution while
driving.